sensor_id;sensor_type;location;lat;lon;timestamp;P1;durP1;ratioP1;P2;durP2;ratioP2
32080;SDS011;18593;51.426;7.030;2023-07-20T00:00:16;5.72;;;3.00;;
32080;SDS011;18593;51.426;7.030;2023-07-20T00:02:45;5.78;;;2.78;;
32080;SDS011;18593;51.426;7.030;2023-07-20T00:05:16;9.15;;;2.90;;
32080;SDS011;18593;51.426;7.030;2023-07-20T00:07:46;7.22;;;3.10;;
32080;SDS011;18593;51.426;7.030;2023-07-20T00:10:17;6.97;;;3.03;;
32080;SDS011;18593;51.426;7.030;2023-07-20T00:12:45;6.43;;;3.13;;
32080;SDS011;18593;51.426;7.030;2023-07-20T00:15:14;7.43;;;2.95;;
32080;SDS011;18593;51.426;7.030;2023-07-20T00:17:41;6.65;;;2.90;;
32080;SDS011;18593;51.426;7.030;2023-07-20T00:20:10;8.55;;;3.22;;
32080;SDS011;18593;51.426;7.030;2023-07-20T00:22:38;7.05;;;3.17;;
32080;SDS011;18593;51.426;7.030;2023-07-20T00:25:05;6.28;;;2.80;;
32080;SDS011;18593;51.426;7.030;2023-07-20T00:27:33;6.63;;;2.92;;
32080;SDS011;18593;51.426;7.030;2023-07-20T00:30:03;6.75;;;2.60;;
32080;SDS011;18593;51.426;7.030;2023-07-20T00:32:32;6.28;;;2.90;;
32080;SDS011;18593;51.426;7.030;2023-07-20T00:34:59;7.47;;;2.60;;
32080;SDS011;18593;51.426;7.030;2023-07-20T00:37:28;8.13;;;2.75;;
32080;SDS011;18593;51.426;7.030;2023-07-20T00:39:55;6.47;;;2.60;;
32080;SDS011;18593;51.426;7.030;2023-07-20T00:42:24;6.65;;;2.92;;
32080;SDS011;18593;51.426;7.030;2023-07-20T00:44:51;7.82;;;3.17;;
32080;SDS011;18593;51.426;7.030;2023-07-20T00:47:20;8.45;;;2.88;;
32080;SDS011;18593;51.426;7.030;2023-07-20T00:49:48;7.10;;;2.80;;
32080;SDS011;18593;51.426;7.030;2023-07-20T00:52:16;9.82;;;3.20;;
32080;SDS011;18593;51.426;7.030;2023-07-20T00:54:45;7.22;;;3.10;;
32080;SDS011;18593;51.426;7.030;2023-07-20T00:57:14;8.85;;;3.55;;
32080;SDS011;18593;51.426;7.030;2023-07-20T00:59:42;7.82;;;3.78;;
32080;SDS011;18593;51.426;7.030;2023-07-20T01:02:10;9.07;;;3.28;;
32080;SDS011;18593;51.426;7.030;2023-07-20T01:04:40;12.48;;;3.92;;
32080;SDS011;18593;51.426;7.030;2023-07-20T01:07:10;9.07;;;3.33;;
32080;SDS011;18593;51.426;7.030;2023-07-20T01:09:44;8.07;;;3.45;;
32080;SDS011;18593;51.426;7.030;2023-07-20T01:12:30;6.85;;;3.60;;
32080;SDS011;18593;51.426;7.030;2023-07-20T01:15:07;8.77;;;4.05;;
32080;SDS011;18593;51.426;7.030;2023-07-20T01:17:35;6.95;;;3.53;;
32080;SDS011;18593;51.426;7.030;2023-07-20T01:20:04;9.73;;;3.42;;
32080;SDS011;18593;51.426;7.030;2023-07-20T01:22:38;9.40;;;3.63;;
32080;SDS011;18593;51.426;7.030;2023-07-20T01:25:32;9.70;;;3.75;;
32080;SDS011;18593;51.426;7.030;2023-07-20T01:28:30;8.98;;;3.72;;
32080;SDS011;18593;51.426;7.030;2023-07-20T01:31:28;6.50;;;3.30;;
32080;SDS011;18593;51.426;7.030;2023-07-20T01:33:58;14.30;;;3.97;;
32080;SDS011;18593;51.426;7.030;2023-07-20T01:36:32;8.65;;;3.65;;
32080;SDS011;18593;51.426;7.030;2023-07-20T01:39:02;8.82;;;3.70;;
32080;SDS011;18593;51.426;7.030;2023-07-20T01:41:30;6.90;;;3.70;;
32080;SDS011;18593;51.426;7.030;2023-07-20T01:43:59;10.75;;;3.80;;
32080;SDS011;18593;51.426;7.030;2023-07-20T01:46:28;8.52;;;3.88;;
32080;SDS011;18593;51.426;7.030;2023-07-20T01:48:56;13.18;;;4.82;;
32080;SDS011;18593;51.426;7.030;2023-07-20T01:51:23;7.63;;;4.03;;
32080;SDS011;18593;51.426;7.030;2023-07-20T01:53:51;11.23;;;4.93;;
32080;SDS011;18593;51.426;7.030;2023-07-20T01:56:18;9.40;;;4.68;;
32080;SDS011;18593;51.426;7.030;2023-07-20T01:58:45;11.48;;;4.45;;
32080;SDS011;18593;51.426;7.030;2023-07-20T02:01:13;11.93;;;5.63;;
32080;SDS011;18593;51.426;7.030;2023-07-20T02:03:41;11.85;;;5.50;;
32080;SDS011;18593;51.426;7.030;2023-07-20T02:06:09;8.75;;;4.88;;
32080;SDS011;18593;51.426;7.030;2023-07-20T02:08:36;10.30;;;4.90;;
32080;SDS011;18593;51.426;7.030;2023-07-20T02:11:03;8.60;;;5.07;;
32080;SDS011;18593;51.426;7.030;2023-07-20T02:13:31;12.30;;;4.85;;
32080;SDS011;18593;51.426;7.030;2023-07-20T02:15:58;11.38;;;5.07;;
32080;SDS011;18593;51.426;7.030;2023-07-20T02:18:25;9.50;;;5.30;;
32080;SDS011;18593;51.426;7.030;2023-07-20T02:20:54;12.70;;;5.13;;
32080;SDS011;18593;51.426;7.030;2023-07-20T02:23:22;7.68;;;4.90;;
32080;SDS011;18593;51.426;7.030;2023-07-20T02:25:49;11.63;;;5.38;;
32080;SDS011;18593;51.426;7.030;2023-07-20T02:28:16;11.52;;;5.70;;
32080;SDS011;18593;51.426;7.030;2023-07-20T02:30:43;10.13;;;5.65;;
32080;SDS011;18593;51.426;7.030;2023-07-20T02:33:11;8.27;;;5.53;;
32080;SDS011;18593;51.426;7.030;2023-07-20T02:35:40;9.77;;;5.47;;
32080;SDS011;18593;51.426;7.030;2023-07-20T02:38:08;10.13;;;5.63;;
32080;SDS011;18593;51.426;7.030;2023-07-20T02:40:36;14.30;;;6.68;;
32080;SDS011;18593;51.426;7.030;2023-07-20T02:43:03;11.13;;;6.43;;
32080;SDS011;18593;51.426;7.030;2023-07-20T02:45:30;11.20;;;6.95;;
32080;SDS011;18593;51.426;7.030;2023-07-20T02:47:58;11.05;;;6.78;;
32080;SDS011;18593;51.426;7.030;2023-07-20T02:50:26;12.00;;;6.47;;
32080;SDS011;18593;51.426;7.030;2023-07-20T02:52:53;13.38;;;7.15;;
32080;SDS011;18593;51.426;7.030;2023-07-20T02:55:22;11.93;;;6.93;;
32080;SDS011;18593;51.426;7.030;2023-07-20T02:57:49;16.02;;;8.15;;
32080;SDS011;18593;51.426;7.030;2023-07-20T03:00:17;13.32;;;7.90;;
32080;SDS011;18593;51.426;7.030;2023-07-20T03:02:45;16.20;;;7.97;;
32080;SDS011;18593;51.426;7.030;2023-07-20T03:05:12;14.85;;;7.78;;
32080;SDS011;18593;51.426;7.030;2023-07-20T03:07:40;14.07;;;8.23;;
32080;SDS011;18593;51.426;7.030;2023-07-20T03:10:08;13.55;;;8.68;;
32080;SDS011;18593;51.426;7.030;2023-07-20T03:12:38;11.95;;;7.70;;
32080;SDS011;18593;51.426;7.030;2023-07-20T03:15:06;13.23;;;7.80;;
32080;SDS011;18593;51.426;7.030;2023-07-20T03:17:35;12.63;;;7.93;;
32080;SDS011;18593;51.426;7.030;2023-07-20T03:20:04;12.73;;;8.63;;
32080;SDS011;18593;51.426;7.030;2023-07-20T03:25:02;13.98;;;7.32;;
32080;SDS011;18593;51.426;7.030;2023-07-20T03:27:30;11.23;;;8.00;;
32080;SDS011;18593;51.426;7.030;2023-07-20T03:30:01;11.50;;;7.60;;
32080;SDS011;18593;51.426;7.030;2023-07-20T03:32:29;10.77;;;7.82;;
32080;SDS011;18593;51.426;7.030;2023-07-20T03:34:56;11.15;;;6.90;;
32080;SDS011;18593;51.426;7.030;2023-07-20T03:37:23;11.07;;;7.30;;
32080;SDS011;18593;51.426;7.030;2023-07-20T03:39:50;13.10;;;7.15;;
32080;SDS011;18593;51.426;7.030;2023-07-20T03:42:18;10.60;;;6.97;;
32080;SDS011;18593;51.426;7.030;2023-07-20T03:44:45;12.05;;;7.40;;
32080;SDS011;18593;51.426;7.030;2023-07-20T03:47:14;12.13;;;7.55;;
32080;SDS011;18593;51.426;7.030;2023-07-20T03:49:41;14.85;;;7.97;;
32080;SDS011;18593;51.426;7.030;2023-07-20T03:52:08;10.85;;;7.75;;
32080;SDS011;18593;51.426;7.030;2023-07-20T03:54:36;12.73;;;8.13;;
32080;SDS011;18593;51.426;7.030;2023-07-20T03:57:03;11.48;;;8.02;;
32080;SDS011;18593;51.426;7.030;2023-07-20T03:59:31;13.93;;;8.07;;
32080;SDS011;18593;51.426;7.030;2023-07-20T04:01:59;14.88;;;8.60;;
32080;SDS011;18593;51.426;7.030;2023-07-20T04:04:27;12.25;;;8.52;;
32080;SDS011;18593;51.426;7.030;2023-07-20T04:06:55;16.20;;;9.23;;
32080;SDS011;18593;51.426;7.030;2023-07-20T04:09:22;16.02;;;9.10;;
32080;SDS011;18593;51.426;7.030;2023-07-20T04:11:49;12.05;;;8.35;;
32080;SDS011;18593;51.426;7.030;2023-07-20T04:14:16;15.90;;;9.77;;
32080;SDS011;18593;51.426;7.030;2023-07-20T04:16:45;12.00;;;8.30;;
32080;SDS011;18593;51.426;7.030;2023-07-20T04:19:13;14.88;;;9.10;;
32080;SDS011;18593;51.426;7.030;2023-07-20T04:21:42;17.50;;;9.18;;
32080;SDS011;18593;51.426;7.030;2023-07-20T04:24:09;14.88;;;9.93;;
32080;SDS011;18593;51.426;7.030;2023-07-20T04:26:37;15.32;;;10.18;;
32080;SDS011;18593;51.426;7.030;2023-07-20T04:29:04;19.48;;;12.02;;
32080;SDS011;18593;51.426;7.030;2023-07-20T04:31:38;18.05;;;13.35;;
32080;SDS011;18593;51.426;7.030;2023-07-20T04:34:05;22.52;;;14.05;;
32080;SDS011;18593;51.426;7.030;2023-07-20T04:36:34;20.33;;;13.73;;
32080;SDS011;18593;51.426;7.030;2023-07-20T04:39:04;20.63;;;13.32;;
32080;SDS011;18593;51.426;7.030;2023-07-20T04:41:37;21.73;;;14.63;;
32080;SDS011;18593;51.426;7.030;2023-07-20T04:44:05;21.45;;;13.90;;
32080;SDS011;18593;51.426;7.030;2023-07-20T04:46:32;19.60;;;13.32;;
32080;SDS011;18593;51.426;7.030;2023-07-20T04:49:01;24.73;;;14.52;;
32080;SDS011;18593;51.426;7.030;2023-07-20T04:51:31;19.90;;;13.35;;
32080;SDS011;18593;51.426;7.030;2023-07-20T04:53:59;21.17;;;13.38;;
32080;SDS011;18593;51.426;7.030;2023-07-20T04:56:32;17.80;;;14.48;;
32080;SDS011;18593;51.426;7.030;2023-07-20T04:59:04;20.55;;;13.30;;
32080;SDS011;18593;51.426;7.030;2023-07-20T05:01:32;20.85;;;13.20;;
32080;SDS011;18593;51.426;7.030;2023-07-20T05:03:59;17.63;;;12.95;;
32080;SDS011;18593;51.426;7.030;2023-07-20T05:06:28;15.40;;;12.05;;
32080;SDS011;18593;51.426;7.030;2023-07-20T05:08:56;17.00;;;12.57;;
32080;SDS011;18593;51.426;7.030;2023-07-20T05:11:23;17.20;;;12.27;;
32080;SDS011;18593;51.426;7.030;2023-07-20T05:13:52;15.75;;;11.85;;
32080;SDS011;18593;51.426;7.030;2023-07-20T05:16:20;18.10;;;12.88;;
32080;SDS011;18593;51.426;7.030;2023-07-20T05:18:47;15.27;;;11.95;;
32080;SDS011;18593;51.426;7.030;2023-07-20T05:21:14;14.82;;;11.20;;
32080;SDS011;18593;51.426;7.030;2023-07-20T05:23:41;18.73;;;11.20;;
32080;SDS011;18593;51.426;7.030;2023-07-20T05:26:11;13.43;;;11.25;;
32080;SDS011;18593;51.426;7.030;2023-07-20T05:28:38;16.73;;;11.43;;
32080;SDS011;18593;51.426;7.030;2023-07-20T05:31:07;12.60;;;10.38;;
32080;SDS011;18593;51.426;7.030;2023-07-20T05:33:34;13.77;;;10.73;;
32080;SDS011;18593;51.426;7.030;2023-07-20T05:36:01;15.85;;;11.35;;
32080;SDS011;18593;51.426;7.030;2023-07-20T05:38:29;13.88;;;10.70;;
32080;SDS011;18593;51.426;7.030;2023-07-20T05:40:59;13.15;;;9.88;;
32080;SDS011;18593;51.426;7.030;2023-07-20T05:43:27;13.15;;;9.35;;
32080;SDS011;18593;51.426;7.030;2023-07-20T05:45:54;10.52;;;9.10;;
32080;SDS011;18593;51.426;7.030;2023-07-20T05:48:23;11.07;;;8.30;;
32080;SDS011;18593;51.426;7.030;2023-07-20T05:50:50;10.90;;;8.05;;
32080;SDS011;18593;51.426;7.030;2023-07-20T05:53:17;12.90;;;9.75;;
32080;SDS011;18593;51.426;7.030;2023-07-20T05:55:45;10.88;;;8.45;;
32080;SDS011;18593;51.426;7.030;2023-07-20T05:58:19;11.77;;;8.70;;
32080;SDS011;18593;51.426;7.030;2023-07-20T06:00:47;10.95;;;7.95;;
32080;SDS011;18593;51.426;7.030;2023-07-20T06:03:15;9.65;;;8.25;;
32080;SDS011;18593;51.426;7.030;2023-07-20T06:05:44;11.40;;;8.43;;
32080;SDS011;18593;51.426;7.030;2023-07-20T06:08:12;10.10;;;7.35;;
32080;SDS011;18593;51.426;7.030;2023-07-20T06:10:39;8.27;;;6.47;;
32080;SDS011;18593;51.426;7.030;2023-07-20T06:13:06;8.05;;;6.35;;
32080;SDS011;18593;51.426;7.030;2023-07-20T06:15:34;8.70;;;5.82;;
32080;SDS011;18593;51.426;7.030;2023-07-20T06:18:01;8.35;;;5.45;;
32080;SDS011;18593;51.426;7.030;2023-07-20T06:20:29;9.48;;;5.43;;
32080;SDS011;18593;51.426;7.030;2023-07-20T06:22:58;8.93;;;6.03;;
32080;SDS011;18593;51.426;7.030;2023-07-20T06:25:25;8.68;;;5.93;;
32080;SDS011;18593;51.426;7.030;2023-07-20T06:27:54;9.00;;;6.10;;
32080;SDS011;18593;51.426;7.030;2023-07-20T06:30:22;10.00;;;6.05;;
32080;SDS011;18593;51.426;7.030;2023-07-20T06:32:51;10.27;;;6.40;;
32080;SDS011;18593;51.426;7.030;2023-07-20T06:35:18;8.50;;;6.55;;
32080;SDS011;18593;51.426;7.030;2023-07-20T06:37:46;11.52;;;6.55;;
32080;SDS011;18593;51.426;7.030;2023-07-20T06:40:14;7.63;;;6.38;;
32080;SDS011;18593;51.426;7.030;2023-07-20T06:42:42;13.55;;;6.88;;
32080;SDS011;18593;51.426;7.030;2023-07-20T06:45:10;10.00;;;6.60;;
32080;SDS011;18593;51.426;7.030;2023-07-20T06:47:37;8.07;;;6.63;;
32080;SDS011;18593;51.426;7.030;2023-07-20T06:50:06;11.45;;;8.27;;
32080;SDS011;18593;51.426;7.030;2023-07-20T06:52:34;11.02;;;8.27;;
32080;SDS011;18593;51.426;7.030;2023-07-20T06:55:02;10.40;;;8.50;;
32080;SDS011;18593;51.426;7.030;2023-07-20T06:57:31;13.25;;;9.80;;
32080;SDS011;18593;51.426;7.030;2023-07-20T06:59:58;15.00;;;11.52;;
32080;SDS011;18593;51.426;7.030;2023-07-20T07:02:26;14.63;;;11.38;;
32080;SDS011;18593;51.426;7.030;2023-07-20T07:04:53;15.13;;;12.48;;
32080;SDS011;18593;51.426;7.030;2023-07-20T07:07:21;17.52;;;14.68;;
32080;SDS011;18593;51.426;7.030;2023-07-20T07:09:48;18.67;;;16.67;;
32080;SDS011;18593;51.426;7.030;2023-07-20T07:12:15;15.98;;;14.27;;
32080;SDS011;18593;51.426;7.030;2023-07-20T07:14:44;15.50;;;14.02;;
32080;SDS011;18593;51.426;7.030;2023-07-20T07:17:11;14.85;;;12.23;;
32080;SDS011;18593;51.426;7.030;2023-07-20T07:19:39;11.60;;;9.63;;
32080;SDS011;18593;51.426;7.030;2023-07-20T07:22:07;10.80;;;8.90;;
32080;SDS011;18593;51.426;7.030;2023-07-20T07:24:34;9.52;;;8.52;;
32080;SDS011;18593;51.426;7.030;2023-07-20T07:27:02;8.98;;;7.03;;
32080;SDS011;18593;51.426;7.030;2023-07-20T07:29:30;8.63;;;7.00;;
32080;SDS011;18593;51.426;7.030;2023-07-20T07:31:58;9.70;;;8.70;;
32080;SDS011;18593;51.426;7.030;2023-07-20T07:34:26;12.32;;;9.55;;
32080;SDS011;18593;51.426;7.030;2023-07-20T07:36:54;11.43;;;9.25;;
32080;SDS011;18593;51.426;7.030;2023-07-20T07:39:21;11.38;;;9.63;;
32080;SDS011;18593;51.426;7.030;2023-07-20T07:41:49;11.23;;;9.32;;
32080;SDS011;18593;51.426;7.030;2023-07-20T07:44:17;9.93;;;8.07;;
32080;SDS011;18593;51.426;7.030;2023-07-20T07:46:46;9.98;;;7.80;;
32080;SDS011;18593;51.426;7.030;2023-07-20T07:49:15;10.80;;;6.90;;
32080;SDS011;18593;51.426;7.030;2023-07-20T07:51:43;8.10;;;6.55;;
32080;SDS011;18593;51.426;7.030;2023-07-20T07:54:11;7.38;;;5.30;;
32080;SDS011;18593;51.426;7.030;2023-07-20T07:56:38;5.78;;;4.60;;
32080;SDS011;18593;51.426;7.030;2023-07-20T07:59:06;7.03;;;4.35;;
32080;SDS011;18593;51.426;7.030;2023-07-20T08:01:33;6.85;;;3.97;;
32080;SDS011;18593;51.426;7.030;2023-07-20T08:04:00;6.03;;;4.38;;
32080;SDS011;18593;51.426;7.030;2023-07-20T08:06:30;5.85;;;4.53;;
32080;SDS011;18593;51.426;7.030;2023-07-20T08:08:57;6.40;;;3.95;;
32080;SDS011;18593;51.426;7.030;2023-07-20T08:11:24;7.13;;;4.68;;
32080;SDS011;18593;51.426;7.030;2023-07-20T08:13:52;4.65;;;3.50;;
32080;SDS011;18593;51.426;7.030;2023-07-20T08:16:19;7.70;;;3.22;;
32080;SDS011;18593;51.426;7.030;2023-07-20T08:18:46;5.18;;;3.10;;
32080;SDS011;18593;51.426;7.030;2023-07-20T08:21:14;5.63;;;2.70;;
32080;SDS011;18593;51.426;7.030;2023-07-20T08:23:42;4.78;;;2.58;;
32080;SDS011;18593;51.426;7.030;2023-07-20T08:26:10;4.47;;;2.75;;
32080;SDS011;18593;51.426;7.030;2023-07-20T08:28:37;4.78;;;3.28;;
32080;SDS011;18593;51.426;7.030;2023-07-20T08:31:05;7.93;;;4.30;;
32080;SDS011;18593;51.426;7.030;2023-07-20T08:33:33;6.90;;;3.58;;
32080;SDS011;18593;51.426;7.030;2023-07-20T08:36:00;7.00;;;4.10;;
32080;SDS011;18593;51.426;7.030;2023-07-20T08:38:28;7.07;;;4.80;;
32080;SDS011;18593;51.426;7.030;2023-07-20T08:40:57;7.32;;;4.60;;
32080;SDS011;18593;51.426;7.030;2023-07-20T08:43:25;7.47;;;5.03;;
32080;SDS011;18593;51.426;7.030;2023-07-20T08:45:54;6.57;;;5.22;;
32080;SDS011;18593;51.426;7.030;2023-07-20T08:48:22;5.82;;;4.45;;
32080;SDS011;18593;51.426;7.030;2023-07-20T08:50:50;5.53;;;4.22;;
32080;SDS011;18593;51.426;7.030;2023-07-20T08:53:19;4.40;;;3.30;;
32080;SDS011;18593;51.426;7.030;2023-07-20T08:55:48;5.03;;;3.03;;
32080;SDS011;18593;51.426;7.030;2023-07-20T08:58:19;5.55;;;2.75;;
32080;SDS011;18593;51.426;7.030;2023-07-20T09:00:47;3.88;;;2.35;;
32080;SDS011;18593;51.426;7.030;2023-07-20T09:03:15;4.50;;;2.38;;
32080;SDS011;18593;51.426;7.030;2023-07-20T09:05:43;3.17;;;2.00;;
32080;SDS011;18593;51.426;7.030;2023-07-20T09:08:11;6.38;;;2.13;;
32080;SDS011;18593;51.426;7.030;2023-07-20T09:10:39;3.92;;;2.13;;
32080;SDS011;18593;51.426;7.030;2023-07-20T09:13:06;5.18;;;2.40;;
32080;SDS011;18593;51.426;7.030;2023-07-20T09:15:34;4.03;;;2.00;;
32080;SDS011;18593;51.426;7.030;2023-07-20T09:18:02;3.13;;;1.52;;
32080;SDS011;18593;51.426;7.030;2023-07-20T09:20:32;8.35;;;0.90;;
32080;SDS011;18593;51.426;7.030;2023-07-20T09:23:00;1.73;;;0.90;;
32080;SDS011;18593;51.426;7.030;2023-07-20T09:25:32;2.72;;;1.13;;
32080;SDS011;18593;51.426;7.030;2023-07-20T09:28:01;2.53;;;0.85;;
32080;SDS011;18593;51.426;7.030;2023-07-20T09:30:30;3.13;;;1.25;;
32080;SDS011;18593;51.426;7.030;2023-07-20T09:32:58;2.60;;;1.00;;
32080;SDS011;18593;51.426;7.030;2023-07-20T09:35:26;2.38;;;0.90;;
32080;SDS011;18593;51.426;7.030;2023-07-20T09:37:55;3.10;;;1.05;;
32080;SDS011;18593;51.426;7.030;2023-07-20T09:40:26;2.13;;;1.10;;
32080;SDS011;18593;51.426;7.030;2023-07-20T09:42:54;2.70;;;1.10;;
32080;SDS011;18593;51.426;7.030;2023-07-20T09:45:28;2.35;;;1.00;;
32080;SDS011;18593;51.426;7.030;2023-07-20T09:48:04;2.50;;;0.90;;
32080;SDS011;18593;51.426;7.030;2023-07-20T09:50:32;2.40;;;1.00;;
32080;SDS011;18593;51.426;7.030;2023-07-20T09:52:59;2.40;;;0.95;;
32080;SDS011;18593;51.426;7.030;2023-07-20T09:55:28;5.35;;;0.93;;
32080;SDS011;18593;51.426;7.030;2023-07-20T09:57:56;4.93;;;0.90;;
32080;SDS011;18593;51.426;7.030;2023-07-20T10:00:24;2.10;;;0.90;;
32080;SDS011;18593;51.426;7.030;2023-07-20T10:02:52;2.80;;;1.00;;
32080;SDS011;18593;51.426;7.030;2023-07-20T10:05:22;2.67;;;0.80;;
32080;SDS011;18593;51.426;7.030;2023-07-20T10:07:53;1.83;;;0.90;;
32080;SDS011;18593;51.426;7.030;2023-07-20T10:10:21;2.58;;;1.10;;
32080;SDS011;18593;51.426;7.030;2023-07-20T10:12:49;2.38;;;0.90;;
32080;SDS011;18593;51.426;7.030;2023-07-20T10:15:19;2.00;;;1.00;;
32080;SDS011;18593;51.426;7.030;2023-07-20T10:17:59;1.92;;;0.80;;
32080;SDS011;18593;51.426;7.030;2023-07-20T10:20:36;3.63;;;1.25;;
32080;SDS011;18593;51.426;7.030;2023-07-20T10:23:07;3.70;;;0.90;;
32080;SDS011;18593;51.426;7.030;2023-07-20T10:25:35;1.98;;;0.80;;
32080;SDS011;18593;51.426;7.030;2023-07-20T10:28:04;1.88;;;0.80;;
32080;SDS011;18593;51.426;7.030;2023-07-20T10:30:32;4.13;;;1.17;;
32080;SDS011;18593;51.426;7.030;2023-07-20T10:33:01;2.30;;;0.93;;
32080;SDS011;18593;51.426;7.030;2023-07-20T10:35:29;2.63;;;1.02;;
32080;SDS011;18593;51.426;7.030;2023-07-20T10:38:18;2.80;;;1.35;;
32080;SDS011;18593;51.426;7.030;2023-07-20T10:40:53;1.80;;;0.80;;
32080;SDS011;18593;51.426;7.030;2023-07-20T10:43:21;2.83;;;1.08;;
32080;SDS011;18593;51.426;7.030;2023-07-20T10:45:49;1.60;;;0.80;;
32080;SDS011;18593;51.426;7.030;2023-07-20T10:48:18;3.65;;;1.08;;
32080;SDS011;18593;51.426;7.030;2023-07-20T10:53:38;2.35;;;1.05;;
32080;SDS011;18593;51.426;7.030;2023-07-20T10:56:06;2.88;;;1.50;;
32080;SDS011;18593;51.426;7.030;2023-07-20T10:58:35;3.08;;;1.80;;
32080;SDS011;18593;51.426;7.030;2023-07-20T11:01:03;2.95;;;1.90;;
32080;SDS011;18593;51.426;7.030;2023-07-20T11:03:32;6.28;;;2.40;;
32080;SDS011;18593;51.426;7.030;2023-07-20T11:09:11;2.92;;;1.40;;
32080;SDS011;18593;51.426;7.030;2023-07-20T11:11:40;4.68;;;2.10;;
32080;SDS011;18593;51.426;7.030;2023-07-20T11:14:09;3.72;;;2.20;;
32080;SDS011;18593;51.426;7.030;2023-07-20T11:16:46;5.95;;;2.35;;
32080;SDS011;18593;51.426;7.030;2023-07-20T11:19:16;3.92;;;2.20;;
32080;SDS011;18593;51.426;7.030;2023-07-20T11:21:46;3.65;;;2.50;;
32080;SDS011;18593;51.426;7.030;2023-07-20T11:24:18;5.70;;;2.50;;
32080;SDS011;18593;51.426;7.030;2023-07-20T11:26:47;3.75;;;2.55;;
32080;SDS011;18593;51.426;7.030;2023-07-20T11:29:16;4.95;;;2.35;;
32080;SDS011;18593;51.426;7.030;2023-07-20T11:31:46;6.88;;;2.63;;
32080;SDS011;18593;51.426;7.030;2023-07-20T11:34:15;4.57;;;2.58;;
32080;SDS011;18593;51.426;7.030;2023-07-20T11:36:44;3.58;;;2.00;;
32080;SDS011;18593;51.426;7.030;2023-07-20T11:39:13;4.75;;;2.67;;
32080;SDS011;18593;51.426;7.030;2023-07-20T11:41:46;4.15;;;2.72;;
32080;SDS011;18593;51.426;7.030;2023-07-20T11:44:15;3.47;;;1.90;;
32080;SDS011;18593;51.426;7.030;2023-07-20T11:46:43;3.33;;;1.80;;
32080;SDS011;18593;51.426;7.030;2023-07-20T11:49:10;4.55;;;1.70;;
32080;SDS011;18593;51.426;7.030;2023-07-20T11:51:39;3.80;;;1.90;;
32080;SDS011;18593;51.426;7.030;2023-07-20T11:54:07;4.45;;;2.10;;
32080;SDS011;18593;51.426;7.030;2023-07-20T11:56:35;2.97;;;1.45;;
32080;SDS011;18593;51.426;7.030;2023-07-20T11:59:04;3.80;;;1.73;;
32080;SDS011;18593;51.426;7.030;2023-07-20T12:01:33;9.65;;;2.00;;
32080;SDS011;18593;51.426;7.030;2023-07-20T12:04:01;4.60;;;2.17;;
32080;SDS011;18593;51.426;7.030;2023-07-20T12:06:31;3.45;;;1.88;;
32080;SDS011;18593;51.426;7.030;2023-07-20T12:08:59;5.32;;;2.08;;
32080;SDS011;18593;51.426;7.030;2023-07-20T12:11:30;3.60;;;1.80;;
32080;SDS011;18593;51.426;7.030;2023-07-20T12:14:01;5.00;;;1.60;;
32080;SDS011;18593;51.426;7.030;2023-07-20T12:16:34;3.53;;;1.70;;
32080;SDS011;18593;51.426;7.030;2023-07-20T12:19:05;3.60;;;1.80;;
32080;SDS011;18593;51.426;7.030;2023-07-20T12:21:33;2.95;;;1.42;;
32080;SDS011;18593;51.426;7.030;2023-07-20T12:24:03;4.07;;;2.03;;
32080;SDS011;18593;51.426;7.030;2023-07-20T12:26:31;4.55;;;2.28;;
32080;SDS011;18593;51.426;7.030;2023-07-20T12:29:00;3.95;;;1.73;;
32080;SDS011;18593;51.426;7.030;2023-07-20T12:31:30;5.38;;;1.75;;
32080;SDS011;18593;51.426;7.030;2023-07-20T12:34:00;3.83;;;1.88;;
32080;SDS011;18593;51.426;7.030;2023-07-20T12:36:27;3.28;;;1.60;;
32080;SDS011;18593;51.426;7.030;2023-07-20T12:38:56;3.33;;;1.95;;
32080;SDS011;18593;51.426;7.030;2023-07-20T12:41:23;3.97;;;1.80;;
32080;SDS011;18593;51.426;7.030;2023-07-20T12:43:50;4.00;;;1.98;;
32080;SDS011;18593;51.426;7.030;2023-07-20T12:46:18;5.38;;;1.80;;
32080;SDS011;18593;51.426;7.030;2023-07-20T12:48:47;4.57;;;2.00;;
32080;SDS011;18593;51.426;7.030;2023-07-20T12:51:14;4.15;;;1.90;;
32080;SDS011;18593;51.426;7.030;2023-07-20T12:53:42;4.53;;;2.03;;
32080;SDS011;18593;51.426;7.030;2023-07-20T12:56:10;2.78;;;1.63;;
32080;SDS011;18593;51.426;7.030;2023-07-20T12:58:38;4.72;;;1.60;;
32080;SDS011;18593;51.426;7.030;2023-07-20T13:01:05;3.70;;;1.65;;
32080;SDS011;18593;51.426;7.030;2023-07-20T13:03:32;3.78;;;1.80;;
32080;SDS011;18593;51.426;7.030;2023-07-20T13:06:01;3.35;;;1.70;;
32080;SDS011;18593;51.426;7.030;2023-07-20T13:08:28;3.53;;;1.52;;
32080;SDS011;18593;51.426;7.030;2023-07-20T13:10:56;5.13;;;1.60;;
32080;SDS011;18593;51.426;7.030;2023-07-20T13:13:23;4.18;;;1.60;;
32080;SDS011;18593;51.426;7.030;2023-07-20T13:15:51;3.75;;;1.58;;
32080;SDS011;18593;51.426;7.030;2023-07-20T13:18:19;6.88;;;1.60;;
32080;SDS011;18593;51.426;7.030;2023-07-20T13:20:46;4.75;;;1.50;;
32080;SDS011;18593;51.426;7.030;2023-07-20T13:23:15;3.50;;;1.33;;
32080;SDS011;18593;51.426;7.030;2023-07-20T13:25:42;2.97;;;1.27;;
32080;SDS011;18593;51.426;7.030;2023-07-20T13:28:09;3.20;;;1.25;;
32080;SDS011;18593;51.426;7.030;2023-07-20T13:30:37;4.40;;;1.40;;
32080;SDS011;18593;51.426;7.030;2023-07-20T13:33:04;3.00;;;1.30;;
32080;SDS011;18593;51.426;7.030;2023-07-20T13:35:32;3.75;;;1.40;;
32080;SDS011;18593;51.426;7.030;2023-07-20T13:37:59;3.25;;;1.48;;
32080;SDS011;18593;51.426;7.030;2023-07-20T13:40:28;3.25;;;1.23;;
32080;SDS011;18593;51.426;7.030;2023-07-20T13:42:55;3.78;;;1.40;;
32080;SDS011;18593;51.426;7.030;2023-07-20T13:45:23;4.13;;;1.38;;
32080;SDS011;18593;51.426;7.030;2023-07-20T13:47:50;3.13;;;1.75;;
32080;SDS011;18593;51.426;7.030;2023-07-20T13:50:18;3.47;;;1.50;;
32080;SDS011;18593;51.426;7.030;2023-07-20T13:52:45;4.72;;;1.27;;
32080;SDS011;18593;51.426;7.030;2023-07-20T13:55:12;2.42;;;1.00;;
32080;SDS011;18593;51.426;7.030;2023-07-20T13:57:41;6.32;;;1.20;;
32080;SDS011;18593;51.426;7.030;2023-07-20T14:00:09;3.30;;;1.10;;
32080;SDS011;18593;51.426;7.030;2023-07-20T14:02:39;3.03;;;1.15;;
32080;SDS011;18593;51.426;7.030;2023-07-20T14:05:06;4.63;;;1.20;;
32080;SDS011;18593;51.426;7.030;2023-07-20T14:07:34;2.28;;;0.80;;
32080;SDS011;18593;51.426;7.030;2023-07-20T14:10:02;4.35;;;1.00;;
32080;SDS011;18593;51.426;7.030;2023-07-20T14:12:30;2.63;;;1.00;;
32080;SDS011;18593;51.426;7.030;2023-07-20T14:14:59;2.97;;;1.10;;
32080;SDS011;18593;51.426;7.030;2023-07-20T14:17:26;4.13;;;1.23;;
32080;SDS011;18593;51.426;7.030;2023-07-20T14:19:53;2.17;;;0.98;;
32080;SDS011;18593;51.426;7.030;2023-07-20T14:22:21;2.35;;;1.02;;
32080;SDS011;18593;51.426;7.030;2023-07-20T14:24:48;3.05;;;1.25;;
32080;SDS011;18593;51.426;7.030;2023-07-20T14:27:15;2.28;;;0.90;;
32080;SDS011;18593;51.426;7.030;2023-07-20T14:29:43;4.10;;;1.23;;
32080;SDS011;18593;51.426;7.030;2023-07-20T14:32:12;3.05;;;1.00;;
32080;SDS011;18593;51.426;7.030;2023-07-20T14:34:39;2.78;;;1.20;;
32080;SDS011;18593;51.426;7.030;2023-07-20T14:37:09;3.03;;;0.80;;
32080;SDS011;18593;51.426;7.030;2023-07-20T14:39:37;3.95;;;1.10;;
32080;SDS011;18593;51.426;7.030;2023-07-20T14:42:04;3.67;;;0.90;;
32080;SDS011;18593;51.426;7.030;2023-07-20T14:44:32;3.55;;;1.00;;
32080;SDS011;18593;51.426;7.030;2023-07-20T14:47:00;2.35;;;1.00;;
32080;SDS011;18593;51.426;7.030;2023-07-20T14:49:29;2.63;;;1.20;;
32080;SDS011;18593;51.426;7.030;2023-07-20T14:51:56;3.00;;;1.15;;
32080;SDS011;18593;51.426;7.030;2023-07-20T14:54:24;3.70;;;1.20;;
32080;SDS011;18593;51.426;7.030;2023-07-20T14:56:51;2.85;;;1.30;;